createdAt,value
2023-03-11T00:00:47.085Z,94.55
2023-03-11T00:03:28.127Z,94.63
2023-03-11T00:06:00.019Z,94.37
2023-03-11T00:08:50.016Z,94.37
2023-03-11T00:11:27.561Z,94.51
2023-03-11T00:14:01.931Z,94.41
2023-03-11T00:16:49.884Z,94.57
2023-03-11T00:19:34.161Z,94.96
2023-03-11T00:22:06.748Z,95.67
2023-03-11T00:25:00.621Z,95.33
2023-03-11T00:27:33.437Z,95.85
2023-03-11T00:30:13.427Z,96.03
2023-03-11T00:35:49.791Z,96.17
2023-03-11T00:38:23.159Z,96.22
2023-03-11T00:41:04.484Z,96.42
2023-03-11T00:43:36.501Z,97.74
2023-03-11T00:46:13.305Z,98.00
2023-03-11T00:48:52.912Z,98.72
2023-03-11T00:51:28.691Z,99.68
2023-03-11T00:54:12.473Z,100.00
2023-03-11T00:56:55.600Z,100.00
2023-03-11T00:59:30.495Z,100.00
2023-03-11T01:02:03.927Z,100.00
2023-03-11T01:04:40.836Z,100.00
2023-03-11T01:07:21.793Z,100.00
2023-03-11T01:10:00.310Z,100.00
2023-03-11T01:12:45.684Z,100.00
2023-03-11T01:15:27.182Z,100.00
2023-03-11T01:18:10.343Z,100.00
2023-03-11T01:20:44.157Z,100.00
2023-03-11T01:23:17.791Z,100.00
2023-03-11T01:26:01.075Z,100.00
2023-03-11T01:28:50.207Z,100.00
2023-03-11T01:31:28.521Z,100.00
2023-03-11T01:34:15.169Z,100.00
2023-03-11T01:36:58.292Z,100.00
2023-03-11T01:39:36.429Z,100.00
2023-03-11T01:42:14.345Z,100.00
2023-03-11T01:44:56.575Z,100.00
2023-03-11T01:47:49.905Z,100.00
2023-03-11T01:50:24.430Z,100.00
2023-03-11T01:53:03.029Z,100.00
2023-03-11T01:55:37.543Z,100.00
2023-03-11T01:58:24.076Z,100.00
2023-03-11T02:01:04.420Z,100.00
2023-03-11T02:03:52.684Z,100.00
2023-03-11T02:06:32.095Z,99.67
2023-03-11T02:09:18.885Z,99.28
2023-03-11T02:12:07.295Z,99.84
2023-03-11T02:14:59.069Z,99.90
2023-03-11T02:17:37.044Z,100.00
2023-03-11T02:20:24.035Z,99.87
2023-03-11T02:23:10.299Z,99.89
2023-03-11T02:25:52.630Z,99.71
2023-03-11T02:28:44.470Z,99.91
2023-03-11T02:31:29.769Z,100.00
2023-03-11T02:34:09.581Z,100.00
2023-03-11T02:39:43.069Z,100.00
2023-03-11T02:42:22.320Z,100.00
2023-03-11T02:45:17.146Z,100.00
2023-03-11T02:48:01.835Z,100.00
2023-03-11T02:53:34.735Z,100.00
2023-03-11T02:56:12.225Z,100.00
2023-03-11T02:58:49.922Z,100.00
2023-03-11T03:01:33.198Z,100.00
2023-03-11T03:04:07.878Z,100.00
2023-03-11T03:06:42.584Z,100.00
2023-03-11T03:09:21.204Z,99.75
2023-03-11T03:12:01.825Z,98.94
2023-03-11T03:14:42.059Z,98.62
2023-03-11T03:17:28.196Z,98.84
2023-03-11T03:20:06.063Z,98.58
2023-03-11T03:22:42.556Z,98.54
2023-03-11T03:25:22.367Z,98.59
2023-03-11T03:27:55.255Z,98.73
2023-03-11T03:30:41.955Z,98.42
2023-03-11T03:33:36.319Z,98.51
2023-03-11T03:36:22.421Z,98.93
2023-03-11T03:39:30.513Z,98.99
2023-03-11T03:42:04.236Z,99.35
2023-03-11T03:44:41.654Z,99.01
2023-03-11T03:47:19.032Z,99.73
2023-03-11T03:50:18.222Z,100.00
2023-03-11T03:52:57.409Z,100.00
2023-03-11T03:55:34.211Z,99.98
2023-03-11T03:58:08.956Z,100.00
2023-03-11T04:00:57.283Z,100.00
2023-03-11T04:03:52.847Z,100.00
2023-03-11T04:06:33.052Z,100.00
2023-03-11T04:09:20.171Z,100.00
2023-03-11T04:11:55.394Z,100.00
2023-03-11T04:14:30.276Z,100.00
2023-03-11T04:17:22.489Z,100.00
2023-03-11T04:20:04.013Z,100.00
2023-03-11T04:22:47.235Z,100.00
2023-03-11T04:25:23.732Z,100.00
2023-03-11T04:28:01.392Z,100.00
2023-03-11T04:30:47.450Z,100.00
2023-03-11T04:33:26.113Z,100.00
2023-03-11T04:36:05.642Z,100.00
2023-03-11T04:38:41.868Z,100.00
2023-03-11T04:41:22.579Z,100.00
2023-03-11T04:43:58.647Z,100.00
2023-03-11T04:46:33.257Z,100.00
2023-03-11T04:49:12.417Z,100.00
2023-03-11T04:51:47.865Z,100.00
2023-03-11T04:54:27.573Z,100.00
2023-03-11T04:57:08.130Z,100.00
2023-03-11T04:59:44.884Z,100.00
2023-03-11T05:02:18.053Z,100.00
2023-03-11T05:05:02.420Z,100.00
2023-03-11T05:07:35.328Z,100.00
2023-03-11T05:10:40.873Z,100.00
2023-03-11T05:13:21.333Z,100.00
2023-03-11T05:15:59.631Z,100.00
2023-03-11T05:18:34.708Z,100.00
2023-03-11T05:21:12.714Z,100.00
2023-03-11T05:23:50.748Z,100.00
2023-03-11T05:26:29.576Z,100.00
2023-03-11T05:29:08.280Z,100.00
2023-03-11T05:31:42.108Z,100.00
2023-03-11T05:34:18.149Z,100.00
2023-03-11T05:36:58.196Z,100.00
2023-03-11T05:39:59.860Z,100.00
2023-03-11T05:42:44.433Z,100.00
2023-03-11T05:45:40.128Z,98.23
2023-03-11T05:48:26.293Z,97.90
2023-03-11T05:50:58.282Z,98.04
2023-03-11T05:53:39.254Z,96.18
2023-03-11T05:56:28.691Z,94.74
2023-03-11T05:59:05.341Z,94.45
2023-03-11T06:01:46.214Z,94.74
2023-03-11T06:04:28.962Z,94.71
2023-03-11T06:07:05.863Z,94.64
2023-03-11T06:09:51.600Z,94.60
2023-03-11T06:12:22.644Z,94.98
2023-03-11T06:15:22.775Z,95.65
2023-03-11T06:17:56.644Z,96.05
2023-03-11T06:20:30.873Z,95.38
2023-03-11T06:23:10.812Z,95.02
2023-03-11T06:25:50.049Z,96.04
2023-03-11T06:28:23.602Z,96.60
2023-03-11T06:31:02.446Z,97.22
2023-03-11T06:33:45.159Z,96.15
2023-03-11T06:36:22.393Z,96.97
2023-03-11T06:39:00.975Z,96.68
2023-03-11T06:41:46.452Z,98.93
2023-03-11T06:44:20.693Z,98.54
2023-03-11T06:47:18.184Z,98.45
2023-03-11T06:49:57.709Z,96.55
2023-03-11T06:52:28.847Z,93.19
2023-03-11T06:55:06.963Z,89.55
2023-03-11T06:57:40.650Z,87.55
2023-03-11T07:00:23.445Z,86.15
2023-03-11T07:03:04.276Z,84.30
2023-03-11T07:05:38.696Z,83.29
2023-03-11T07:08:15.028Z,84.52
2023-03-11T07:10:50.632Z,79.03
2023-03-11T07:13:32.634Z,75.32
2023-03-11T07:16:17.171Z,74.97
2023-03-11T07:19:06.438Z,75.21
2023-03-11T07:21:46.420Z,74.12
2023-03-11T07:24:21.099Z,74.04
2023-03-11T07:27:08.767Z,74.23
2023-03-11T07:29:49.007Z,74.43
2023-03-11T07:32:27.202Z,73.15
2023-03-11T07:35:06.157Z,72.47
2023-03-11T07:37:40.968Z,71.52
2023-03-11T07:40:31.277Z,70.44
2023-03-11T07:46:10.052Z,70.38
2023-03-11T07:48:50.241Z,71.47
2023-03-11T07:51:43.751Z,71.86
2023-03-11T07:54:23.429Z,71.63
2023-03-11T07:57:03.208Z,73.05
2023-03-11T07:59:40.726Z,73.09
2023-03-11T08:02:16.472Z,68.77
2023-03-11T08:04:57.255Z,67.04
2023-03-11T08:07:47.322Z,66.91
2023-03-11T08:10:21.525Z,66.44
2023-03-11T08:12:59.739Z,67.57
2023-03-11T08:15:31.974Z,68.07
2023-03-11T08:18:25.392Z,70.35
2023-03-11T08:21:05.063Z,66.71
2023-03-11T08:24:03.388Z,66.16
2023-03-11T08:26:45.661Z,66.87
2023-03-11T08:29:26.870Z,68.75
2023-03-11T08:32:11.352Z,69.09
2023-03-11T08:34:49.071Z,68.40
2023-03-11T08:37:21.015Z,70.07
2023-03-11T08:39:58.223Z,70.84
2023-03-11T08:42:32.374Z,70.51
2023-03-11T08:45:09.920Z,71.58
2023-03-11T08:47:46.957Z,70.57
2023-03-11T08:50:25.426Z,72.03
2023-03-11T08:53:00.649Z,73.73
2023-03-11T08:55:44.898Z,74.58
2023-03-11T08:58:18.111Z,75.47
2023-03-11T09:00:55.909Z,76.66
2023-03-11T09:03:33.667Z,78.01
2023-03-11T09:06:16.500Z,80.14
2023-03-11T09:09:04.479Z,80.40
2023-03-11T09:11:47.620Z,82.41
2023-03-11T09:14:27.926Z,83.64
2023-03-11T09:17:01.734Z,82.62
2023-03-11T09:19:38.405Z,78.79
2023-03-11T09:22:14.369Z,77.91
2023-03-11T09:24:57.516Z,79.38
2023-03-11T09:27:33.312Z,78.22
2023-03-11T09:30:09.918Z,77.69
2023-03-11T09:32:47.724Z,79.32
2023-03-11T09:35:23.819Z,80.98
2023-03-11T09:38:01.156Z,78.67
2023-03-11T09:40:50.131Z,81.30
2023-03-11T09:43:45.952Z,80.81
2023-03-11T09:46:55.814Z,80.97
2023-03-11T09:49:40.658Z,83.36
2023-03-11T09:52:32.423Z,82.78
2023-03-11T09:55:27.149Z,81.02
2023-03-11T09:58:03.094Z,81.39
2023-03-11T10:00:59.285Z,82.03
2023-03-11T10:03:40.998Z,82.03
2023-03-11T10:06:32.966Z,83.73
2023-03-11T10:09:26.781Z,84.49
2023-03-11T10:12:23.349Z,84.26
2023-03-11T10:15:26.257Z,84.24
2023-03-11T10:18:40.879Z,84.28
2023-03-11T10:21:33.912Z,85.47
2023-03-11T10:24:46.333Z,85.68
2023-03-11T10:27:31.215Z,85.63
2023-03-11T10:30:13.472Z,85.64
2023-03-11T10:33:00.390Z,85.70
2023-03-11T10:35:45.991Z,85.47
2023-03-11T10:38:38.744Z,86.32
2023-03-11T10:41:21.296Z,88.84
2023-03-11T10:44:04.461Z,88.28
2023-03-11T10:46:41.995Z,86.50
2023-03-11T10:49:27.651Z,79.81
2023-03-11T10:52:29.904Z,79.68
2023-03-11T10:55:11.467Z,79.44
2023-03-11T10:57:51.671Z,80.39
2023-03-11T11:00:43.066Z,79.39
2023-03-11T11:03:48.172Z,79.60
2023-03-11T11:06:49.465Z,77.84
2023-03-11T11:09:34.934Z,78.68
2023-03-11T11:12:21.163Z,79.63
2023-03-11T11:15:15.489Z,77.80
2023-03-11T11:17:59.733Z,78.25
2023-03-11T11:20:41.420Z,77.74
2023-03-11T11:23:32.939Z,76.49
2023-03-11T11:26:23.979Z,76.54
2023-03-11T11:29:25.228Z,75.42
2023-03-11T11:32:25.228Z,76.62
2023-03-11T11:35:08.235Z,76.94
2023-03-11T11:37:53.486Z,76.46
2023-03-11T11:43:34.210Z,75.07
2023-03-11T11:46:17.165Z,72.74
2023-03-11T11:49:06.147Z,72.26
2023-03-11T11:51:46.547Z,71.33
2023-03-11T11:54:30.918Z,72.96
2023-03-11T11:57:06.905Z,71.04
2023-03-11T11:59:41.604Z,70.05
2023-03-11T12:03:01.938Z,70.24
2023-03-11T12:05:35.160Z,71.08
2023-03-11T12:08:18.573Z,70.70
2023-03-11T12:10:59.113Z,69.38
2023-03-11T12:14:13.773Z,67.56
2023-03-11T12:16:58.728Z,68.75
2023-03-11T12:19:49.577Z,67.16
2023-03-11T12:22:54.442Z,66.19
2023-03-11T12:25:49.755Z,67.86
2023-03-11T12:28:42.077Z,66.92
2023-03-11T12:31:22.544Z,66.14
2023-03-11T12:34:05.635Z,66.55
2023-03-11T12:36:39.344Z,67.33
2023-03-11T12:39:25.736Z,66.12
2023-03-11T12:42:29.420Z,68.19
2023-03-11T12:45:45.071Z,67.22
2023-03-11T12:48:43.584Z,68.79
2023-03-11T12:51:55.062Z,67.13
2023-03-11T12:54:38.894Z,65.77
2023-03-11T12:57:31.828Z,64.49
2023-03-11T13:00:36.502Z,65.96
2023-03-11T13:03:58.640Z,68.11
2023-03-11T13:07:18.476Z,68.36
2023-03-11T13:10:15.438Z,68.77
2023-03-11T13:12:52.238Z,70.63
2023-03-11T13:15:48.069Z,68.39
2023-03-11T13:18:32.844Z,69.66
2023-03-11T13:21:08.909Z,69.68
2023-03-11T13:23:48.937Z,70.46
2023-03-11T13:26:41.994Z,71.33
2023-03-11T13:29:49.410Z,68.58
2023-03-11T13:33:14.912Z,69.58
2023-03-11T13:36:13.307Z,71.61
2023-03-11T13:39:25.276Z,69.59
2023-03-11T13:42:07.411Z,68.47
2023-03-11T13:44:55.154Z,69.97
2023-03-11T13:47:40.542Z,69.15
2023-03-11T13:50:33.787Z,69.84
2023-03-11T13:53:11.855Z,68.74
2023-03-11T13:56:03.377Z,70.16
2023-03-11T13:58:49.344Z,73.00
2023-03-11T14:01:26.048Z,77.96
2023-03-11T14:04:00.942Z,81.10
2023-03-11T14:06:35.782Z,80.83
2023-03-11T14:09:36.708Z,82.17
2023-03-11T14:12:24.034Z,83.38
2023-03-11T14:15:20.859Z,83.29
2023-03-11T14:18:32.882Z,84.37
2023-03-11T14:21:21.522Z,84.86
2023-03-11T14:24:01.418Z,86.46
2023-03-11T14:26:38.111Z,86.53
2023-03-11T14:29:14.913Z,86.74
2023-03-11T14:31:51.914Z,85.81
2023-03-11T14:34:25.733Z,85.36
2023-03-11T14:36:58.959Z,83.90
2023-03-11T14:39:33.660Z,80.53
2023-03-11T14:42:10.521Z,81.74
2023-03-11T14:44:45.539Z,81.60
2023-03-11T14:47:24.413Z,82.10
2023-03-11T14:49:57.890Z,81.37
2023-03-11T14:52:37.787Z,81.85
2023-03-11T14:55:18.340Z,81.75
2023-03-11T14:57:55.730Z,82.10
2023-03-11T15:00:29.502Z,82.74
2023-03-11T15:03:25.944Z,83.82
2023-03-11T15:06:12.147Z,83.29
2023-03-11T15:09:12.688Z,82.53
2023-03-11T15:11:56.030Z,83.55
2023-03-11T15:14:28.517Z,84.37
2023-03-11T15:17:33.093Z,83.00
2023-03-11T15:20:35.101Z,84.26
2023-03-11T15:23:25.893Z,83.08
2023-03-11T15:26:06.638Z,81.46
2023-03-11T15:28:52.055Z,79.77
2023-03-11T15:31:50.494Z,78.10
2023-03-11T15:34:38.835Z,78.51
2023-03-11T15:37:27.176Z,76.66
2023-03-11T15:40:19.440Z,77.95
2023-03-11T15:43:36.935Z,78.24
2023-03-11T15:46:13.413Z,78.73
2023-03-11T15:48:58.495Z,79.72
2023-03-11T15:52:07.302Z,80.06
2023-03-11T15:54:54.486Z,80.93
2023-03-11T15:57:35.844Z,82.28
2023-03-11T16:00:29.112Z,83.35
2023-03-11T16:03:05.413Z,83.77
2023-03-11T16:05:45.310Z,84.01
2023-03-11T16:08:22.655Z,84.87
2023-03-11T16:11:06.959Z,85.78
2023-03-11T16:13:49.028Z,86.46
2023-03-11T16:16:39.168Z,86.72
2023-03-11T16:19:19.212Z,87.06
2023-03-11T16:22:01.964Z,87.31
2023-03-11T16:24:46.494Z,87.37
2023-03-11T16:27:38.202Z,86.91
2023-03-11T16:30:20.292Z,86.45
2023-03-11T16:33:05.124Z,86.46
2023-03-11T16:35:48.048Z,86.45
2023-03-11T16:38:24.750Z,86.57
2023-03-11T16:41:08.072Z,86.75
2023-03-11T16:43:53.679Z,86.67
2023-03-11T16:46:27.329Z,86.20
2023-03-11T16:49:08.807Z,86.21
2023-03-11T16:51:52.449Z,86.43
2023-03-11T16:54:35.619Z,86.14
2023-03-11T16:57:23.633Z,86.09
2023-03-11T17:00:08.973Z,86.50
2023-03-11T17:02:42.224Z,85.75
2023-03-11T17:05:25.886Z,85.62
2023-03-11T17:08:09.739Z,84.54
2023-03-11T17:10:55.323Z,84.27
2023-03-11T17:13:31.999Z,84.01
2023-03-11T17:16:15.077Z,84.03
2023-03-11T17:19:02.510Z,83.54
2023-03-11T17:21:39.409Z,83.90
2023-03-11T17:24:26.488Z,83.93
2023-03-11T17:27:02.199Z,83.28
2023-03-11T17:29:42.762Z,83.70
2023-03-11T17:32:26.801Z,83.66
2023-03-11T17:35:03.990Z,83.49
2023-03-11T17:37:40.932Z,84.41
2023-03-11T17:40:24.242Z,84.98
2023-03-11T17:43:00.296Z,86.07
2023-03-11T17:45:42.920Z,86.77
2023-03-11T17:48:35.739Z,87.67
2023-03-11T17:51:12.952Z,88.36
2023-03-11T17:53:50.858Z,88.67
2023-03-11T17:56:31.872Z,88.87
2023-03-11T17:59:07.900Z,89.66
2023-03-11T18:01:51.339Z,89.40
2023-03-11T18:04:36.449Z,89.54
2023-03-11T18:07:15.042Z,89.95
2023-03-11T18:09:54.519Z,90.61
2023-03-11T18:12:26.579Z,91.05
2023-03-11T18:14:57.527Z,91.68
2023-03-11T18:17:34.678Z,91.95
2023-03-11T18:20:19.319Z,91.90
2023-03-11T18:22:50.088Z,92.43
2023-03-11T18:25:29.073Z,92.66
2023-03-11T18:28:08.994Z,92.87
2023-03-11T18:30:44.589Z,92.81
2023-03-11T18:33:19.260Z,92.81
2023-03-11T18:36:03.684Z,92.25
2023-03-11T18:38:41.638Z,92.32
2023-03-11T18:41:18.437Z,92.38
2023-03-11T18:43:50.762Z,92.02
2023-03-11T18:46:23.341Z,92.42
2023-03-11T18:48:58.183Z,92.00
2023-03-11T18:51:51.881Z,91.98
2023-03-11T18:54:28.559Z,92.03
2023-03-11T18:57:02.565Z,92.75
2023-03-11T18:59:50.188Z,92.80
2023-03-11T19:02:28.455Z,93.04
2023-03-11T19:05:12.385Z,93.46
2023-03-11T19:07:54.610Z,93.67
2023-03-11T19:10:48.354Z,93.74
2023-03-11T19:13:45.862Z,93.11
2023-03-11T19:16:25.274Z,93.28
2023-03-11T19:19:06.412Z,93.16
2023-03-11T19:21:52.452Z,92.46
2023-03-11T19:27:48.353Z,92.30
2023-03-11T19:30:33.126Z,91.74
2023-03-11T19:33:25.854Z,91.13
2023-03-11T19:36:24.106Z,91.12
2023-03-11T19:39:03.418Z,90.71
2023-03-11T19:42:10.496Z,90.38
2023-03-11T19:44:48.469Z,89.47
2023-03-11T19:47:23.228Z,88.96
2023-03-11T19:50:01.256Z,88.90
2023-03-11T19:52:42.758Z,89.17
2023-03-11T19:55:26.719Z,89.05
2023-03-11T19:58:16.844Z,88.91
2023-03-11T20:01:04.823Z,88.85
2023-03-11T20:03:53.314Z,89.83
2023-03-11T20:06:28.675Z,89.83
2023-03-11T20:09:07.395Z,89.52
2023-03-11T20:11:50.037Z,88.87
2023-03-11T20:14:31.521Z,87.77
2023-03-11T20:17:05.690Z,87.88
2023-03-11T20:19:44.805Z,86.87
2023-03-11T20:22:21.306Z,85.82
2023-03-11T20:25:07.451Z,84.90
2023-03-11T20:28:05.402Z,83.79
2023-03-11T20:30:52.266Z,82.14
2023-03-11T20:33:56.280Z,81.30
2023-03-11T20:36:33.107Z,79.94
2023-03-11T20:39:23.165Z,77.93
2023-03-11T20:42:10.107Z,76.34
2023-03-11T20:44:59.632Z,75.41
2023-03-11T20:47:58.042Z,74.64
2023-03-11T20:50:32.608Z,73.19
2023-03-11T20:56:17.980Z,71.76
2023-03-11T20:58:56.580Z,72.05
2023-03-11T21:01:33.775Z,71.81
2023-03-11T21:04:21.127Z,71.55
2023-03-11T21:07:00.001Z,71.50
2023-03-11T21:09:36.506Z,71.76
2023-03-11T21:12:25.168Z,71.69
2023-03-11T21:15:06.082Z,70.93
2023-03-11T21:17:45.043Z,70.39
2023-03-11T21:20:30.413Z,70.10
2023-03-11T21:23:13.723Z,69.19
2023-03-11T21:25:55.932Z,68.74
2023-03-11T21:28:38.114Z,69.31
2023-03-11T21:31:18.146Z,68.90
2023-03-11T21:34:02.044Z,67.96
2023-03-11T21:36:40.276Z,68.56
2023-03-11T21:39:26.992Z,67.96
2023-03-11T21:42:20.557Z,67.75
2023-03-11T21:45:06.923Z,69.25
2023-03-11T21:47:53.086Z,68.38
2023-03-11T21:50:38.330Z,67.92
2023-03-11T21:53:20.700Z,67.30
2023-03-11T21:56:08.365Z,66.72
2023-03-11T21:58:50.845Z,66.80
2023-03-11T22:01:34.901Z,67.63
2023-03-11T22:04:16.089Z,67.59
2023-03-11T22:06:58.631Z,67.38
2023-03-11T22:09:41.020Z,66.62
2023-03-11T22:12:26.946Z,66.81
2023-03-11T22:15:13.775Z,65.69
2023-03-11T22:18:08.558Z,65.66
2023-03-11T22:20:45.337Z,65.07
2023-03-11T22:23:30.300Z,65.25
2023-03-11T22:26:15.645Z,65.52
2023-03-11T22:28:53.813Z,64.87
2023-03-11T22:31:26.302Z,65.35
2023-03-11T22:34:04.189Z,65.01
2023-03-11T22:36:42.527Z,65.30
2023-03-11T22:39:20.067Z,65.69
2023-03-11T22:42:03.978Z,65.36
2023-03-11T22:44:41.333Z,64.94
2023-03-11T22:47:21.766Z,65.53
2023-03-11T22:50:00.710Z,65.62
2023-03-11T22:52:41.921Z,65.74
2023-03-11T22:55:23.624Z,66.23
2023-03-11T22:58:05.497Z,66.42
2023-03-11T23:00:50.181Z,66.62
2023-03-11T23:03:35.478Z,65.52
2023-03-11T23:06:14.833Z,65.70
2023-03-11T23:08:50.589Z,66.38
2023-03-11T23:11:27.991Z,66.10
2023-03-11T23:14:20.564Z,66.49
2023-03-11T23:17:10.632Z,67.00
2023-03-11T23:19:55.559Z,67.74
2023-03-11T23:22:44.302Z,67.91
2023-03-11T23:25:25.369Z,67.64
2023-03-11T23:28:08.966Z,67.07
2023-03-11T23:30:52.736Z,67.61
2023-03-11T23:33:35.042Z,67.70
2023-03-11T23:36:20.190Z,67.47
2023-03-11T23:38:56.948Z,68.04
2023-03-11T23:41:52.009Z,68.89
2023-03-11T23:44:30.384Z,69.25
2023-03-11T23:47:10.132Z,68.97
2023-03-11T23:49:53.544Z,69.70
2023-03-11T23:52:31.759Z,68.42
2023-03-11T23:55:14.318Z,69.17
2023-03-11T23:57:49.912Z,69.28
